createdAt,value
2023-06-21T00:00:12.450Z,7.51
2023-06-21T00:01:12.539Z,8.85
2023-06-21T00:02:11.483Z,7.89
2023-06-21T00:03:12.629Z,8.37
2023-06-21T00:04:11.643Z,8.49
2023-06-21T00:05:12.614Z,7.94
2023-06-21T00:06:12.661Z,9.30
2023-06-21T00:07:12.682Z,8.75
2023-06-21T00:08:12.655Z,7.52
2023-06-21T00:09:12.726Z,8.29
2023-06-21T00:10:12.689Z,7.48
2023-06-21T00:11:12.804Z,7.34
2023-06-21T00:12:12.780Z,8.57
2023-06-21T00:13:11.790Z,7.40
2023-06-21T00:14:12.917Z,8.36
2023-06-21T00:15:12.856Z,8.08
2023-06-21T00:16:12.913Z,8.24
2023-06-21T00:17:12.934Z,7.62
2023-06-21T00:18:12.996Z,7.06
2023-06-21T00:19:13.110Z,7.60
2023-06-21T00:20:13.088Z,8.20
2023-06-21T00:21:13.151Z,7.74
2023-06-21T00:22:12.159Z,7.66
2023-06-21T00:23:13.192Z,8.23
2023-06-21T00:24:13.254Z,7.81
2023-06-21T00:25:12.334Z,7.96
2023-06-21T00:26:13.359Z,7.64
2023-06-21T00:27:13.440Z,8.86
2023-06-21T00:28:13.353Z,8.46
2023-06-21T00:29:13.450Z,7.89
2023-06-21T00:30:13.435Z,7.90
2023-06-21T00:31:13.516Z,7.37
2023-06-21T00:32:13.516Z,8.12
2023-06-21T00:33:13.561Z,9.26
2023-06-21T00:34:13.555Z,8.41
2023-06-21T00:35:12.575Z,8.21
2023-06-21T00:36:12.537Z,7.70
2023-06-21T00:37:13.597Z,7.12
2023-06-21T00:38:12.598Z,6.99
2023-06-21T00:39:12.654Z,9.23
2023-06-21T00:40:13.744Z,8.26
2023-06-21T00:41:13.747Z,7.28
2023-06-21T00:42:13.798Z,8.42
2023-06-21T00:43:13.844Z,8.00
2023-06-21T00:44:13.859Z,7.59
2023-06-21T00:45:13.910Z,7.75
2023-06-21T00:46:13.980Z,8.40
2023-06-21T00:47:13.077Z,8.30
2023-06-21T00:48:14.062Z,7.65
2023-06-21T00:49:14.068Z,8.29
2023-06-21T00:50:14.136Z,7.99
2023-06-21T00:51:14.117Z,7.62
2023-06-21T00:52:13.137Z,8.12
2023-06-21T00:53:13.254Z,7.67
2023-06-21T00:54:14.266Z,8.48
2023-06-21T00:55:14.306Z,8.01
2023-06-21T00:56:14.395Z,8.33
2023-06-21T00:57:14.406Z,7.38
2023-06-21T00:58:14.466Z,7.79
2023-06-21T00:59:14.565Z,8.70
2023-06-21T01:00:13.572Z,7.63
2023-06-21T01:01:14.685Z,8.21
2023-06-21T01:02:14.798Z,8.35
2023-06-21T01:03:14.690Z,7.29
2023-06-21T01:04:14.682Z,8.63
2023-06-21T01:05:13.830Z,7.72
2023-06-21T01:06:14.813Z,8.51
2023-06-21T01:07:13.890Z,7.71
2023-06-21T01:08:13.945Z,8.67
2023-06-21T01:09:14.968Z,9.41
2023-06-21T01:10:15.025Z,8.31
2023-06-21T01:11:15.124Z,7.70
2023-06-21T01:12:15.130Z,8.10
2023-06-21T01:13:15.198Z,7.45
2023-06-21T01:14:15.292Z,8.63
2023-06-21T01:15:15.260Z,8.65
2023-06-21T01:16:14.306Z,8.35
2023-06-21T01:17:14.318Z,8.77
2023-06-21T01:18:15.263Z,8.20
2023-06-21T01:19:15.289Z,8.31
2023-06-21T01:20:15.335Z,8.91
2023-06-21T01:21:15.307Z,9.45
2023-06-21T01:22:15.336Z,8.81
2023-06-21T01:23:14.340Z,9.07
2023-06-21T01:24:14.450Z,8.93
2023-06-21T01:25:15.368Z,9.33
2023-06-21T01:26:15.471Z,9.14
2023-06-21T01:27:15.410Z,10.12
2023-06-21T01:28:15.468Z,8.09
2023-06-21T01:29:14.447Z,9.43
2023-06-21T01:30:14.499Z,9.03
2023-06-21T01:31:15.513Z,8.67
2023-06-21T01:32:15.536Z,9.40
2023-06-21T01:33:14.504Z,8.96
2023-06-21T01:34:15.591Z,10.37
2023-06-21T01:35:15.546Z,9.28
2023-06-21T01:36:15.538Z,10.05
2023-06-21T01:37:15.534Z,9.58
2023-06-21T01:38:14.596Z,9.27
2023-06-21T01:39:14.599Z,9.23
2023-06-21T01:40:14.570Z,8.67
2023-06-21T01:41:15.600Z,8.69
2023-06-21T01:42:15.652Z,9.30
2023-06-21T01:43:14.695Z,9.23
2023-06-21T01:44:15.754Z,8.71
2023-06-21T01:45:15.805Z,8.77
2023-06-21T01:46:15.806Z,8.58
2023-06-21T01:47:15.791Z,8.56
2023-06-21T01:48:14.836Z,8.03
2023-06-21T01:49:15.937Z,8.55
2023-06-21T01:50:15.927Z,7.92
2023-06-21T01:51:16.009Z,8.85
2023-06-21T01:52:14.984Z,8.99
2023-06-21T01:53:15.990Z,9.12
2023-06-21T01:54:16.046Z,8.34
2023-06-21T01:55:16.056Z,8.07
2023-06-21T01:56:16.088Z,8.81
2023-06-21T01:57:16.116Z,8.26
2023-06-21T01:58:15.100Z,8.01
2023-06-21T01:59:15.136Z,8.49
2023-06-21T02:00:15.136Z,8.21
2023-06-21T02:01:15.188Z,8.66
2023-06-21T02:02:16.199Z,7.56
2023-06-21T02:03:16.235Z,7.88
2023-06-21T02:04:16.326Z,8.80
2023-06-21T02:05:16.295Z,8.20
2023-06-21T02:06:16.337Z,7.86
2023-06-21T02:07:16.387Z,8.13
2023-06-21T02:08:16.417Z,8.16
2023-06-21T02:09:15.477Z,8.53
2023-06-21T02:10:15.532Z,8.39
2023-06-21T02:11:16.498Z,8.12
2023-06-21T02:12:16.532Z,8.42
2023-06-21T02:13:16.586Z,9.48
2023-06-21T02:14:16.582Z,7.84
2023-06-21T02:15:15.746Z,8.19
2023-06-21T02:16:16.639Z,7.89
2023-06-21T02:17:16.649Z,8.69
2023-06-21T02:18:16.706Z,8.44
2023-06-21T02:19:16.815Z,8.58
2023-06-21T02:20:16.824Z,9.17
2023-06-21T02:21:16.839Z,7.85
2023-06-21T02:22:16.919Z,8.15
2023-06-21T02:23:16.907Z,8.88
2023-06-21T02:24:16.987Z,8.10
2023-06-21T02:25:15.994Z,7.51
2023-06-21T02:26:16.036Z,8.34
2023-06-21T02:27:17.108Z,8.68
2023-06-21T02:28:17.048Z,8.20
2023-06-21T02:29:17.102Z,7.80
2023-06-21T02:30:16.137Z,9.20
2023-06-21T02:31:16.151Z,8.84
2023-06-21T02:32:17.180Z,9.36
2023-06-21T02:33:17.261Z,8.06
2023-06-21T02:34:16.265Z,9.17
2023-06-21T02:35:16.380Z,8.34
2023-06-21T02:36:17.424Z,9.13
2023-06-21T02:37:17.428Z,9.08
2023-06-21T02:38:17.540Z,8.81
2023-06-21T02:39:17.620Z,10.25
2023-06-21T02:40:17.630Z,9.87
2023-06-21T02:41:17.712Z,9.34
2023-06-21T02:42:16.841Z,9.06
2023-06-21T02:43:17.763Z,10.44
2023-06-21T02:44:17.824Z,9.72
2023-06-21T02:45:17.865Z,10.49
2023-06-21T02:46:17.862Z,9.93
2023-06-21T02:47:17.908Z,10.39
2023-06-21T02:48:17.917Z,9.91
2023-06-21T02:49:16.966Z,10.43
2023-06-21T02:50:16.945Z,10.55
2023-06-21T02:51:17.949Z,10.02
2023-06-21T02:52:18.003Z,10.58
2023-06-21T02:53:17.976Z,10.49
2023-06-21T02:54:18.017Z,10.52
2023-06-21T02:55:17.963Z,10.02
2023-06-21T02:56:17.984Z,11.13
2023-06-21T02:57:18.031Z,11.39
2023-06-21T02:58:18.033Z,10.27
2023-06-21T02:59:18.081Z,9.20
2023-06-21T03:00:18.089Z,9.27
2023-06-21T03:01:18.166Z,9.29
2023-06-21T03:02:18.185Z,9.15
2023-06-21T03:03:18.351Z,9.22
2023-06-21T03:04:18.274Z,9.06
2023-06-21T03:05:17.315Z,9.53
2023-06-21T03:06:18.423Z,10.51
2023-06-21T03:07:18.434Z,10.14
2023-06-21T03:08:18.460Z,9.76
2023-06-21T03:09:18.482Z,10.19
2023-06-21T03:10:18.624Z,9.58
2023-06-21T03:11:18.588Z,10.11
2023-06-21T03:12:18.658Z,9.55
2023-06-21T03:13:18.797Z,10.54
2023-06-21T03:14:18.781Z,9.28
2023-06-21T03:15:18.859Z,9.85
2023-06-21T03:16:18.907Z,10.69
2023-06-21T03:17:18.936Z,9.10
2023-06-21T03:18:19.005Z,9.77
2023-06-21T03:19:19.126Z,9.79
2023-06-21T03:20:18.123Z,10.07
2023-06-21T03:21:18.151Z,11.06
2023-06-21T03:22:18.197Z,9.38
2023-06-21T03:23:19.273Z,10.31
2023-06-21T03:24:19.296Z,10.27
2023-06-21T03:25:19.298Z,10.12
2023-06-21T03:26:18.372Z,10.74
2023-06-21T03:27:19.331Z,10.66
2023-06-21T03:28:19.390Z,9.50
2023-06-21T03:29:19.461Z,8.96
2023-06-21T03:30:19.593Z,9.53
2023-06-21T03:31:19.597Z,9.48
2023-06-21T03:32:19.701Z,10.10
2023-06-21T03:33:19.697Z,10.43
2023-06-21T03:34:19.642Z,9.61
2023-06-21T03:35:19.819Z,9.38
2023-06-21T03:36:19.813Z,9.97
2023-06-21T03:37:19.823Z,9.95
2023-06-21T03:38:19.825Z,9.72
2023-06-21T03:39:18.920Z,10.39
2023-06-21T03:40:19.949Z,9.80
2023-06-21T03:41:19.954Z,10.48
2023-06-21T03:42:18.949Z,10.99
2023-06-21T03:43:19.933Z,10.51
2023-06-21T03:44:19.958Z,10.47
2023-06-21T03:45:20.040Z,10.05
2023-06-21T03:46:20.064Z,10.35
2023-06-21T03:47:20.103Z,10.22
2023-06-21T03:48:20.072Z,10.47
2023-06-21T03:49:20.126Z,9.59
2023-06-21T03:50:20.235Z,10.45
2023-06-21T03:51:19.266Z,10.09
2023-06-21T03:52:20.293Z,10.91
2023-06-21T03:53:20.376Z,8.95
2023-06-21T03:54:20.472Z,8.93
2023-06-21T03:55:20.450Z,10.40
2023-06-21T03:56:20.439Z,10.46
2023-06-21T03:57:19.481Z,10.24
2023-06-21T03:58:19.513Z,8.70
2023-06-21T03:59:20.532Z,10.99
2023-06-21T04:00:19.575Z,11.21
2023-06-21T04:01:20.626Z,10.64
2023-06-21T04:02:20.596Z,10.54
2023-06-21T04:03:20.646Z,10.38
2023-06-21T04:04:20.728Z,10.35
2023-06-21T04:05:20.692Z,9.70
2023-06-21T04:06:20.702Z,10.54
2023-06-21T04:07:21.609Z,10.35
2023-06-21T04:08:19.789Z,11.11
2023-06-21T04:09:20.848Z,10.57
2023-06-21T04:10:20.843Z,10.76
2023-06-21T04:11:20.902Z,9.92
2023-06-21T04:12:20.927Z,10.87
2023-06-21T04:13:20.960Z,10.97
2023-06-21T04:14:20.973Z,10.26
2023-06-21T04:15:21.025Z,10.08
2023-06-21T04:16:21.088Z,10.58
2023-06-21T04:17:21.062Z,10.78
2023-06-21T04:18:20.079Z,10.06
2023-06-21T04:19:21.107Z,10.35
2023-06-21T04:20:20.091Z,9.46
2023-06-21T04:21:21.105Z,9.40
2023-06-21T04:22:20.153Z,10.47
2023-06-21T04:23:20.140Z,9.89
2023-06-21T04:24:21.223Z,8.98
2023-06-21T04:25:21.271Z,10.01
2023-06-21T04:26:20.286Z,10.05
2023-06-21T04:27:20.286Z,9.80
2023-06-21T04:28:21.308Z,10.59
2023-06-21T04:29:21.393Z,10.35
2023-06-21T04:30:21.332Z,8.71
2023-06-21T04:31:21.319Z,8.49
2023-06-21T04:32:20.357Z,8.99
2023-06-21T04:33:21.307Z,9.49
2023-06-21T04:34:20.353Z,8.68
2023-06-21T04:35:21.369Z,8.39
2023-06-21T04:36:21.382Z,8.62
2023-06-21T04:37:21.425Z,9.91
2023-06-21T04:38:21.459Z,9.30
2023-06-21T04:39:20.573Z,9.05
2023-06-21T04:40:21.561Z,9.23
2023-06-21T04:41:21.601Z,9.95
2023-06-21T04:42:21.667Z,10.29
2023-06-21T04:43:21.692Z,9.93
2023-06-21T04:44:21.712Z,8.65
2023-06-21T04:45:20.760Z,9.63
2023-06-21T04:46:21.879Z,9.69
2023-06-21T04:47:20.811Z,9.89
2023-06-21T04:48:21.835Z,9.32
2023-06-21T04:49:21.901Z,8.31
2023-06-21T04:50:29.044Z,9.17
2023-06-21T04:51:21.920Z,8.55
2023-06-21T04:52:21.918Z,9.05
2023-06-21T04:53:21.961Z,9.55
2023-06-21T04:54:20.923Z,9.71
2023-06-21T04:55:20.978Z,9.88
2023-06-21T04:56:21.869Z,9.06
2023-06-21T04:57:21.867Z,8.80
2023-06-21T04:58:20.882Z,8.98
2023-06-21T04:59:21.916Z,10.34
2023-06-21T05:00:20.895Z,9.78
2023-06-21T05:01:21.858Z,9.62
2023-06-21T05:02:21.882Z,9.30
2023-06-21T05:03:20.887Z,9.04
2023-06-21T05:04:21.814Z,9.10
2023-06-21T05:05:20.816Z,9.68
2023-06-21T05:06:21.861Z,9.26
2023-06-21T05:07:20.803Z,9.29
2023-06-21T05:08:21.806Z,10.29
2023-06-21T05:09:21.806Z,10.03
2023-06-21T05:10:21.787Z,10.19
2023-06-21T05:11:21.776Z,9.21
2023-06-21T05:12:20.772Z,9.98
2023-06-21T05:13:21.825Z,9.82
2023-06-21T05:14:21.760Z,9.18
2023-06-21T05:15:21.760Z,9.17
2023-06-21T05:16:21.748Z,9.33
2023-06-21T05:17:21.780Z,9.41
2023-06-21T05:18:21.729Z,9.60
2023-06-21T05:19:21.803Z,8.95
2023-06-21T05:20:21.721Z,9.11
2023-06-21T05:21:21.722Z,9.51
2023-06-21T05:22:21.710Z,10.56
2023-06-21T05:23:21.709Z,10.01
2023-06-21T05:24:21.740Z,9.94
2023-06-21T05:25:21.709Z,10.81
2023-06-21T05:26:21.677Z,10.86
2023-06-21T05:27:21.760Z,11.20
2023-06-21T05:28:20.681Z,10.00
2023-06-21T05:29:21.688Z,11.44
2023-06-21T05:30:21.684Z,11.19
2023-06-21T05:31:21.786Z,10.13
2023-06-21T05:32:21.784Z,11.17
2023-06-21T05:33:21.779Z,11.64
2023-06-21T05:34:21.888Z,11.91
2023-06-21T05:35:22.031Z,11.79
2023-06-21T05:36:20.973Z,11.46
2023-06-21T05:37:22.026Z,11.20
2023-06-21T05:38:22.065Z,10.61
2023-06-21T05:39:22.140Z,10.83
2023-06-21T05:40:22.179Z,11.48
2023-06-21T05:41:22.198Z,11.63
2023-06-21T05:42:22.273Z,11.18
2023-06-21T05:43:21.350Z,10.38
2023-06-21T05:44:21.317Z,12.20
2023-06-21T05:45:22.320Z,11.47
2023-06-21T05:46:22.468Z,11.59
2023-06-21T05:47:22.468Z,11.21
2023-06-21T05:48:22.545Z,10.39
2023-06-21T05:49:22.451Z,10.69
2023-06-21T05:50:21.544Z,11.25
2023-06-21T05:51:21.533Z,10.68
2023-06-21T05:52:22.615Z,11.05
2023-06-21T05:53:22.740Z,11.97
2023-06-21T05:54:22.669Z,11.64
2023-06-21T05:55:22.752Z,11.69
2023-06-21T05:56:22.816Z,11.88
2023-06-21T05:57:22.821Z,11.68
2023-06-21T05:58:22.927Z,11.80
2023-06-21T05:59:21.920Z,13.34
2023-06-21T06:00:23.802Z,11.88
2023-06-21T06:01:25.141Z,12.58
2023-06-21T06:02:23.072Z,11.77
2023-06-21T06:03:23.086Z,13.55
2023-06-21T06:04:23.022Z,11.72
2023-06-21T06:05:21.984Z,13.53
2023-06-21T06:06:21.979Z,12.56
2023-06-21T06:07:22.965Z,12.39
2023-06-21T06:08:22.973Z,12.72
2023-06-21T06:09:22.956Z,12.97
2023-06-21T06:10:22.941Z,13.22
2023-06-21T06:11:22.928Z,13.95
2023-06-21T06:12:22.995Z,13.38
2023-06-21T06:13:22.925Z,13.49
2023-06-21T06:14:23.393Z,11.88
2023-06-21T06:15:23.088Z,12.20
2023-06-21T06:16:22.906Z,14.43
2023-06-21T06:17:21.970Z,12.05
2023-06-21T06:18:21.907Z,12.09
2023-06-21T06:19:22.879Z,11.52
2023-06-21T06:20:21.906Z,12.43
2023-06-21T06:21:22.926Z,12.31
2023-06-21T06:22:22.908Z,11.52
2023-06-21T06:23:22.865Z,12.10
2023-06-21T06:24:21.875Z,12.77
2023-06-21T06:25:22.897Z,12.55
2023-06-21T06:26:22.868Z,12.56
2023-06-21T06:27:22.883Z,10.48
2023-06-21T06:28:22.833Z,11.64
2023-06-21T06:29:22.825Z,11.80
2023-06-21T06:30:22.866Z,10.87
2023-06-21T06:31:22.857Z,11.84
2023-06-21T06:32:22.841Z,12.19
2023-06-21T06:33:22.791Z,12.32
2023-06-21T06:34:22.788Z,12.96
2023-06-21T06:35:22.824Z,12.13
2023-06-21T06:36:22.817Z,11.73
2023-06-21T06:37:27.538Z,12.09
2023-06-21T06:38:22.773Z,13.62
2023-06-21T06:39:22.778Z,13.90
2023-06-21T06:40:22.756Z,12.54
2023-06-21T06:41:22.744Z,12.70
2023-06-21T06:42:22.776Z,13.86
2023-06-21T06:43:22.739Z,14.37
2023-06-21T06:44:21.762Z,14.57
2023-06-21T06:45:23.459Z,15.58
2023-06-21T06:46:22.735Z,16.68
2023-06-21T06:47:21.886Z,16.11
2023-06-21T06:48:22.719Z,16.11
2023-06-21T06:49:22.695Z,15.31
2023-06-21T06:50:21.783Z,16.00
2023-06-21T06:51:22.685Z,16.42
2023-06-21T06:52:22.806Z,16.56
2023-06-21T06:53:22.671Z,15.89
2023-06-21T06:54:22.723Z,15.72
2023-06-21T06:55:23.004Z,16.27
2023-06-21T06:56:22.643Z,17.40
2023-06-21T06:57:35.255Z,16.80
2023-06-21T06:58:22.622Z,16.90
2023-06-21T06:59:22.705Z,15.35
2023-06-21T07:00:22.969Z,16.10
2023-06-21T07:01:21.608Z,14.25
2023-06-21T07:02:22.633Z,15.25
2023-06-21T07:03:33.055Z,13.31
2023-06-21T07:04:22.824Z,14.19
2023-06-21T07:05:24.560Z,16.35
2023-06-21T07:06:22.640Z,16.66
2023-06-21T07:07:22.631Z,16.89
2023-06-21T07:08:22.683Z,17.75
2023-06-21T07:09:22.600Z,17.23
2023-06-21T07:10:22.620Z,16.54
2023-06-21T07:11:22.620Z,16.64
2023-06-21T07:12:22.583Z,17.85
2023-06-21T07:13:21.585Z,16.89
2023-06-21T07:14:22.605Z,17.48
2023-06-21T07:15:24.137Z,18.48
2023-06-21T07:16:22.551Z,19.29
2023-06-21T07:17:22.632Z,17.75
2023-06-21T07:18:22.954Z,18.03
2023-06-21T07:19:22.558Z,17.83
2023-06-21T07:20:22.589Z,18.00
2023-06-21T07:21:25.658Z,16.99
2023-06-21T07:22:22.565Z,18.14
2023-06-21T07:23:22.640Z,18.03
2023-06-21T07:24:23.028Z,17.97
2023-06-21T07:25:22.545Z,17.65
2023-06-21T07:26:25.291Z,16.93
2023-06-21T07:27:22.601Z,16.71
2023-06-21T07:28:22.482Z,17.43
2023-06-21T07:29:22.472Z,17.81
2023-06-21T07:30:22.507Z,17.87
2023-06-21T07:31:21.465Z,17.82
2023-06-21T07:32:22.605Z,18.07
2023-06-21T07:33:21.453Z,17.03
2023-06-21T07:34:22.452Z,16.79
2023-06-21T07:35:22.449Z,16.93
2023-06-21T07:36:22.435Z,15.08
2023-06-21T07:37:22.483Z,11.53
2023-06-21T07:38:22.439Z,13.70
2023-06-21T07:39:21.469Z,13.32
2023-06-21T07:40:22.431Z,13.64
2023-06-21T07:41:25.390Z,13.27
2023-06-21T07:42:22.557Z,12.71
2023-06-21T07:43:22.372Z,13.66
2023-06-21T07:44:21.413Z,12.62
2023-06-21T07:45:21.395Z,13.14
2023-06-21T07:46:21.588Z,14.50
2023-06-21T07:47:21.375Z,13.13
2023-06-21T07:48:22.384Z,13.44
2023-06-21T07:49:22.337Z,13.50
2023-06-21T07:50:23.283Z,14.38
2023-06-21T07:51:22.520Z,12.77
2023-06-21T07:52:22.516Z,13.63
2023-06-21T07:53:22.315Z,13.03
2023-06-21T07:54:22.303Z,13.57
2023-06-21T07:55:21.321Z,13.61
2023-06-21T07:56:22.535Z,13.57
2023-06-21T07:57:21.285Z,14.70
2023-06-21T07:58:22.275Z,13.63
2023-06-21T07:59:21.303Z,14.61
2023-06-21T08:00:21.281Z,15.27
2023-06-21T08:01:21.289Z,13.22
2023-06-21T08:02:22.380Z,13.94
2023-06-21T08:03:21.343Z,14.31
2023-06-21T08:04:22.311Z,13.65
2023-06-21T08:05:22.263Z,14.09
2023-06-21T08:06:22.285Z,14.15
2023-06-21T08:07:24.076Z,13.96
2023-06-21T08:08:22.522Z,14.45
2023-06-21T08:09:21.242Z,14.75
2023-06-21T08:10:22.269Z,13.54
2023-06-21T08:11:21.191Z,14.65
2023-06-21T08:12:22.216Z,13.39
2023-06-21T08:13:22.196Z,14.62
2023-06-21T08:14:22.185Z,14.09
2023-06-21T08:15:21.237Z,14.15
2023-06-21T08:16:22.168Z,13.41
2023-06-21T08:17:22.247Z,15.19
2023-06-21T08:18:21.185Z,14.03
2023-06-21T08:19:22.451Z,13.88
2023-06-21T08:20:22.204Z,16.35
2023-06-21T08:21:21.118Z,15.19
2023-06-21T08:22:22.121Z,14.72
2023-06-21T08:23:22.105Z,15.51
2023-06-21T08:24:21.162Z,14.59
2023-06-21T08:25:22.093Z,15.13
2023-06-21T08:26:24.086Z,14.07
2023-06-21T08:27:22.081Z,14.74
2023-06-21T08:28:22.102Z,15.70
2023-06-21T08:29:22.102Z,15.04
2023-06-21T08:30:22.086Z,15.28
2023-06-21T08:31:23.712Z,14.92
2023-06-21T08:32:22.285Z,15.05
2023-06-21T08:33:21.262Z,14.50
2023-06-21T08:34:22.273Z,13.99
2023-06-21T08:35:22.299Z,15.14
2023-06-21T08:36:21.362Z,13.77
2023-06-21T08:37:22.384Z,14.31
2023-06-21T08:38:28.033Z,14.40
2023-06-21T08:39:22.368Z,13.54
2023-06-21T08:40:22.378Z,13.21
2023-06-21T08:41:22.542Z,14.82
2023-06-21T08:42:22.352Z,13.79
2023-06-21T08:43:21.325Z,13.83
2023-06-21T08:44:22.377Z,12.97
2023-06-21T08:45:22.342Z,14.04
2023-06-21T08:46:22.370Z,15.05
2023-06-21T08:47:22.368Z,13.04
2023-06-21T08:48:22.293Z,14.09
2023-06-21T08:49:22.376Z,13.33
2023-06-21T08:50:21.454Z,13.27
2023-06-21T08:51:22.305Z,13.47
2023-06-21T08:52:21.261Z,14.32
2023-06-21T08:53:21.271Z,13.13
2023-06-21T08:54:21.268Z,12.85
2023-06-21T08:55:21.736Z,13.60
2023-06-21T08:56:22.562Z,13.94
2023-06-21T08:57:22.249Z,13.46
2023-06-21T08:58:21.270Z,13.60
2023-06-21T08:59:22.237Z,12.66
2023-06-21T09:00:22.332Z,13.08
2023-06-21T09:01:22.255Z,13.97
2023-06-21T09:02:22.311Z,12.53
2023-06-21T09:03:22.406Z,14.01
2023-06-21T09:04:22.423Z,13.93
2023-06-21T09:05:21.219Z,13.03
2023-06-21T09:06:21.184Z,13.21
2023-06-21T09:07:22.189Z,11.73
2023-06-21T09:08:21.214Z,13.01
2023-06-21T09:09:22.163Z,12.94
2023-06-21T09:10:22.229Z,11.97
2023-06-21T09:11:22.164Z,12.90
2023-06-21T09:12:22.158Z,12.56
2023-06-21T09:13:22.178Z,14.17
2023-06-21T09:14:22.258Z,12.92
2023-06-21T09:15:22.306Z,13.74
2023-06-21T09:16:22.453Z,13.37
2023-06-21T09:17:22.400Z,13.46
2023-06-21T09:18:22.367Z,12.76
2023-06-21T09:19:22.410Z,13.35
2023-06-21T09:20:22.442Z,13.39
2023-06-21T09:21:23.924Z,14.09
2023-06-21T09:22:22.477Z,13.64
2023-06-21T09:23:22.473Z,12.33
2023-06-21T09:24:22.456Z,12.83
2023-06-21T09:25:22.448Z,14.09
2023-06-21T09:26:22.423Z,12.46
2023-06-21T09:27:22.417Z,12.67
2023-06-21T09:28:22.397Z,12.44
2023-06-21T09:29:22.374Z,12.13
2023-06-21T09:30:36.092Z,11.78
2023-06-21T09:31:23.176Z,12.57
2023-06-21T09:32:22.590Z,13.12
2023-06-21T09:33:22.585Z,12.86
2023-06-21T09:34:22.418Z,11.95
2023-06-21T09:35:22.460Z,13.15
2023-06-21T09:36:21.509Z,11.21
2023-06-21T09:37:22.401Z,11.63
2023-06-21T09:38:22.333Z,12.97
2023-06-21T09:39:22.493Z,12.49
2023-06-21T09:40:22.339Z,11.37
2023-06-21T09:41:21.325Z,11.38
2023-06-21T09:42:21.337Z,11.96
2023-06-21T09:43:22.336Z,11.42
2023-06-21T09:44:22.362Z,11.13
2023-06-21T09:45:22.311Z,10.16
2023-06-21T09:46:22.276Z,9.88
2023-06-21T09:47:21.318Z,8.98
2023-06-21T09:48:21.598Z,9.23
2023-06-21T09:49:22.407Z,8.98
2023-06-21T09:50:22.406Z,9.06
2023-06-21T09:51:21.598Z,9.39
2023-06-21T09:52:22.402Z,8.81
2023-06-21T09:53:21.450Z,8.20
2023-06-21T09:54:22.448Z,8.62
2023-06-21T09:55:22.566Z,9.74
2023-06-21T09:56:22.562Z,9.12
2023-06-21T09:57:22.929Z,8.85
2023-06-21T09:58:21.638Z,9.76
2023-06-21T09:59:22.629Z,9.72
2023-06-21T10:00:21.676Z,9.32
2023-06-21T10:01:21.836Z,8.41
2023-06-21T10:02:22.823Z,8.61
2023-06-21T10:03:21.746Z,8.55
2023-06-21T10:04:22.805Z,8.95
2023-06-21T10:05:22.826Z,9.18
2023-06-21T10:06:21.803Z,9.15
2023-06-21T10:07:22.873Z,8.90
2023-06-21T10:08:22.841Z,9.14
2023-06-21T10:09:22.900Z,8.62
2023-06-21T10:10:22.938Z,8.82
2023-06-21T10:11:21.950Z,9.22
2023-06-21T10:12:22.973Z,9.14
2023-06-21T10:13:23.013Z,8.96
2023-06-21T10:14:22.048Z,8.11
2023-06-21T10:15:23.065Z,8.57
2023-06-21T10:16:23.075Z,7.95
2023-06-21T10:17:22.157Z,8.11
2023-06-21T10:18:23.200Z,8.67
2023-06-21T10:19:23.173Z,8.07
2023-06-21T10:20:23.201Z,9.46
2023-06-21T10:21:23.216Z,9.61
2023-06-21T10:22:22.270Z,8.45
2023-06-21T10:23:23.266Z,8.14
2023-06-21T10:24:22.291Z,8.43
2023-06-21T10:25:23.345Z,7.90
2023-06-21T10:26:23.357Z,8.65
2023-06-21T10:27:23.473Z,8.37
2023-06-21T10:28:23.446Z,7.79
2023-06-21T10:29:23.385Z,8.49
2023-06-21T10:30:23.428Z,9.56
2023-06-21T10:31:22.566Z,8.09
2023-06-21T10:32:22.605Z,7.74
2023-06-21T10:33:23.595Z,8.20
2023-06-21T10:34:23.209Z,8.68
2023-06-21T10:35:22.707Z,7.96
2023-06-21T10:36:22.819Z,8.01
2023-06-21T10:37:23.693Z,7.75
2023-06-21T10:38:22.736Z,8.07
2023-06-21T10:39:23.756Z,8.02
2023-06-21T10:40:24.180Z,8.20
2023-06-21T10:41:22.821Z,8.05
2023-06-21T10:42:22.851Z,9.29
2023-06-21T10:43:22.869Z,9.09
2023-06-21T10:44:24.954Z,8.24
2023-06-21T10:45:23.934Z,7.74
2023-06-21T10:46:23.149Z,8.90
2023-06-21T10:47:24.168Z,8.04
2023-06-21T10:48:24.012Z,8.54
2023-06-21T10:49:23.007Z,8.31
2023-06-21T10:50:24.016Z,8.38
2023-06-21T10:51:24.082Z,8.66
2023-06-21T10:52:24.143Z,7.87
2023-06-21T10:53:24.134Z,9.01
2023-06-21T10:54:24.158Z,8.18
2023-06-21T10:55:23.181Z,7.00
2023-06-21T10:56:24.230Z,7.70
2023-06-21T10:57:24.224Z,7.66
2023-06-21T10:58:23.254Z,8.33
2023-06-21T10:59:24.330Z,8.16
2023-06-21T11:00:23.349Z,8.16
2023-06-21T11:01:24.393Z,8.83
2023-06-21T11:02:24.438Z,9.01
2023-06-21T11:03:24.445Z,7.89
2023-06-21T11:04:23.540Z,7.68
2023-06-21T11:05:24.681Z,8.93
2023-06-21T11:06:23.612Z,8.53
2023-06-21T11:07:23.658Z,7.71
2023-06-21T11:08:23.694Z,8.69
2023-06-21T11:09:23.675Z,7.66
2023-06-21T11:10:23.682Z,8.13
2023-06-21T11:11:24.763Z,7.62
2023-06-21T11:12:24.819Z,8.31
2023-06-21T11:13:24.768Z,8.20
2023-06-21T11:14:23.835Z,8.15
2023-06-21T11:15:23.846Z,7.79
2023-06-21T11:16:24.897Z,8.30
2023-06-21T11:17:24.991Z,7.81
2023-06-21T11:18:25.002Z,7.93
2023-06-21T11:19:25.004Z,8.12
2023-06-21T11:20:24.021Z,8.12
2023-06-21T11:21:24.059Z,8.04
2023-06-21T11:22:24.086Z,8.28
2023-06-21T11:23:24.913Z,8.03
2023-06-21T11:24:25.135Z,8.18
2023-06-21T11:25:24.178Z,7.97
2023-06-21T11:26:25.157Z,8.15
2023-06-21T11:27:24.293Z,7.52
2023-06-21T11:28:24.258Z,8.82
2023-06-21T11:29:25.323Z,7.80
2023-06-21T11:30:25.354Z,7.87
2023-06-21T11:31:25.461Z,9.13
2023-06-21T11:32:24.388Z,9.12
2023-06-21T11:33:25.421Z,8.69
2023-06-21T11:34:24.414Z,7.41
2023-06-21T11:35:24.453Z,7.73
2023-06-21T11:36:24.492Z,8.10
2023-06-21T11:37:25.516Z,8.50
2023-06-21T11:38:25.562Z,8.20
2023-06-21T11:39:24.645Z,7.77
2023-06-21T11:40:25.821Z,7.89
2023-06-21T11:41:24.630Z,7.78
2023-06-21T11:42:24.665Z,8.31
2023-06-21T11:43:25.692Z,8.82
2023-06-21T11:44:25.703Z,8.39
2023-06-21T11:45:24.774Z,7.57
2023-06-21T11:46:25.781Z,8.35
2023-06-21T11:47:25.878Z,7.73
2023-06-21T11:48:24.920Z,7.70
2023-06-21T11:49:25.899Z,8.80
2023-06-21T11:50:26.322Z,9.00
2023-06-21T11:51:25.071Z,8.07
2023-06-21T11:52:25.045Z,7.70
2023-06-21T11:53:26.052Z,9.13
2023-06-21T11:54:25.098Z,8.98
2023-06-21T11:55:25.115Z,7.94
2023-06-21T11:56:25.169Z,8.14
2023-06-21T11:57:26.170Z,7.27
2023-06-21T11:58:26.230Z,8.41
2023-06-21T11:59:25.259Z,8.12
2023-06-21T12:00:25.321Z,8.74
2023-06-21T12:01:26.270Z,7.61
2023-06-21T12:02:25.446Z,8.65
2023-06-21T12:03:26.558Z,7.26
2023-06-21T12:04:25.492Z,7.32
2023-06-21T12:05:26.633Z,8.79
2023-06-21T12:06:26.431Z,7.68
2023-06-21T12:07:26.446Z,7.86
2023-06-21T12:08:26.890Z,7.64
2023-06-21T12:09:26.913Z,7.32
2023-06-21T12:10:26.958Z,8.65
2023-06-21T12:11:26.752Z,7.73
2023-06-21T12:12:26.962Z,8.13
2023-06-21T12:13:26.896Z,8.18
2023-06-21T12:14:26.803Z,8.08
2023-06-21T12:15:26.910Z,6.60
2023-06-21T12:16:26.104Z,8.34
2023-06-21T12:17:26.087Z,6.87
2023-06-21T12:18:26.190Z,7.93
2023-06-21T12:19:27.070Z,8.24
2023-06-21T12:20:27.322Z,8.05
2023-06-21T12:21:27.239Z,8.30
2023-06-21T12:22:26.122Z,9.13
2023-06-21T12:23:26.120Z,7.69
2023-06-21T12:24:26.165Z,7.94
2023-06-21T12:25:27.350Z,8.64
2023-06-21T12:26:26.259Z,7.83
2023-06-21T12:27:26.436Z,8.11
2023-06-21T12:28:26.433Z,8.77
2023-06-21T12:29:26.376Z,7.89
2023-06-21T12:30:27.875Z,8.61
2023-06-21T12:31:26.556Z,8.45
2023-06-21T12:32:26.572Z,7.76
2023-06-21T12:33:26.633Z,8.62
2023-06-21T12:34:27.729Z,7.66
2023-06-21T12:35:27.659Z,6.99
2023-06-21T12:36:27.692Z,7.33
2023-06-21T12:37:26.740Z,7.79
2023-06-21T12:38:27.709Z,8.40
2023-06-21T12:39:26.737Z,8.39
2023-06-21T12:40:28.018Z,7.82
2023-06-21T12:41:26.801Z,8.02
2023-06-21T12:42:27.816Z,7.41
2023-06-21T12:43:26.916Z,7.69
2023-06-21T12:44:26.936Z,8.68
2023-06-21T12:45:27.914Z,7.78
2023-06-21T12:46:26.978Z,8.10
2023-06-21T12:47:27.107Z,8.02
2023-06-21T12:48:27.054Z,7.97
2023-06-21T12:49:27.009Z,8.31
2023-06-21T12:50:28.333Z,7.46
2023-06-21T12:51:27.196Z,8.26
2023-06-21T12:52:28.191Z,8.70
2023-06-21T12:53:28.177Z,7.53
2023-06-21T12:54:27.254Z,8.36
2023-06-21T12:55:28.255Z,8.03
2023-06-21T12:56:27.360Z,9.33
2023-06-21T12:57:28.394Z,7.74
2023-06-21T12:58:28.423Z,8.01
2023-06-21T12:59:27.357Z,7.80
2023-06-21T13:00:27.769Z,7.58
2023-06-21T13:01:27.509Z,8.01
2023-06-21T13:02:28.828Z,8.00
2023-06-21T13:03:28.520Z,8.67
2023-06-21T13:04:28.749Z,8.34
2023-06-21T13:05:28.641Z,9.38
2023-06-21T13:06:28.639Z,8.73
2023-06-21T13:07:28.704Z,9.12